SEASEATTLE-TACOMA INTL
METARs for airports near SEA, sorted by distance:
N 0 nm 432' KSEA 221753Z 01012KT 10SM SCT021 SCT250 12/03 A3019
NE 4 nm 32' KRNT 221753Z 33009KT 10SM CLR 12/06 A3020
N 4 nm 21' KBFI 221753Z VRB06KT 10SM SCT035 13/05 A3020
SW 15 nm 294' KTIW 221753Z 03011G21KT 10SM SCT019 11/04 A3020
W 18 nm 444' KPWT 221756Z 05009G16KT 10SM FEW031 12/05 A3019
S 19 nm 322' KTCM 221755Z 01010KT 10SM CLR 12/04 A3018
S 20 nm 537' KPLU 221815Z VRB04G11KT 10SM CLR 13/04 A3017
SW 24 nm 301' KGRF 221755Z 34008KT 10SM CLR 12/03 A3016
N 27 nm 606' KPAE 221753Z 32010G18KT 10SM FEW015 SCT024 11/04 A3020
W 36 nm 272' KSHN 221753Z 08009G17KT 10SM CLR 13/02 A3016
SW 37 nm 207' KOLM 221754Z 06010KT 10SM CLR 12/03 A3018
N 43 nm 141' KAWO 221756Z 30009KT 270V350 10SM SCT025 12/06 A3021
SW 53 nm 177' KCLS 221815Z 04010KT 10SM CLR 12/05 A3016
N 55 nm 47' KNUW 221753Z 32008KT 10SM SCT035 SCT250 11/06 A3023
NW 60 nm 13' KNOW 221815Z 08004KT 10SM CLR 11/06 A3024
N 61 nm 145' KBVS 221815Z 30009KT 10SM CLR 11/09 A3021
NW 62 nm 291' KCLM 221753Z 08006KT 10SM SCT029 11/04 A3024
NW 70 nm 112' KFHR 221753Z 36008G17KT 10SM CLR 12/05 A3024
SW 72 nm 17' KHQM 221753Z 19005KT 10SM CLR 11/06 A3018
E 76 nm 1763' KELN 221753Z 18004KT 10SM CLR 11/M03 A3014
N 79 nm 34' KORS 221815Z 32006KT 10SM CLR 10/05 A3023
N 81 nm 171' KBLI 221827Z 32008KT 10SM SCT030 13/04 A3021
S 83 nm 20' KKLS 221756Z 34008KT 10SM CLR 12/04 A3015
NW 84 nm 64' CYYJ 221800Z 03011KT 30SM BKN028 11/05 A3023
E 85 nm 1248' KEAT 221755Z 29005KT 10SM 11/M05 A3015
SE 89 nm 1098' KYKM 221753Z VRB04KT 10SM CLR 13/M02 A3015
W 95 nm 194' KUIL 221753Z VRB05KT 10SM CLR 14/03 A3019
TAFs for airports near SEA, sorted by distance:
N 0 nm 432' KSEA KSEA 221722Z 2218/2324 03010KT P6SM SCT020 SCT200
  FM221900 01012KT P6SM FEW200
  FM230400 02006KT P6SM FEW200
N 4 nm 21' KBFI TAF
  AMD KBFI 221808Z 2218/2318 03006KT P6SM SCT035
  FM221900 36009KT P6SM FEW200
  FM230500 VRB02KT P6SM FEW200
W 18 nm 444' KPWT TAF KPWT 221722Z 2218/2318 05010KT P6SM FEW030
  FM222000 05014G20KT P6SM SKC
  FM230300 04004KT P6SM FEW200
S 19 nm 322' KTCM TAF KTCM 221300Z 2213/2319 01008KT 9999 SKC QNH3019INS
  BECMG 2217/2218 03010G15KT 9999 SKC QNH3002INS
  BECMG 2304/2305 03005KT 9999 SCT250 QNH2996INS TX17/2223Z TN04/2313Z
SW 24 nm 301' KGRF TAF KGRF 221300Z 2213/2319 03006KT 9999 SKC 510003 QNH3020INS
  BECMG 2217/2218 03010G20KT 9999 SKC QNH3018INS
  BECMG 2304/2305 02009KT 9999 FEW180 QNH3002INS TX17/2223Z TN00/2213Z
N 27 nm 606' KPAE KPAE 221722Z 2218/2318 36007KT P6SM SCT010
  FM221900 34007KT P6SM FEW200
  FM230900 02003KT P6SM BKN250
SW 37 nm 207' KOLM KOLM 221722Z 2218/2318 07010KT P6SM FEW200
  FM222000 03013KT P6SM FEW200
  FM230600 VRB02KT P6SM BKN250
N 55 nm 47' KNUW TAF KNUW 2215/2315 31007KT 9999 MIFG FEW010 FEW025 SCT060 SCT250 QNH3015INS
  FM222000 30010G16KT 9999 FEW025 FEW250 QNH3004INS
  FM230600 VRB06KT 9999 MIFG FEW015 SCT150 QNH3002INS TX15/2223Z TN07/2312Z FS30028
NW 62 nm 291' KCLM TAF
  AMD KCLM 221808Z 2218/2318 VRB05KT P6SM SCT030
  FM222000 07008KT P6SM BKN030
  FM230200 VRB03KT P6SM BKN250
SW 72 nm 17' KHQM KHQM 221722Z 2218/2318 14006KT P6SM FEW200
  FM222000 28009KT P6SM FEW200
  FM230300 33005KT P6SM SCT200
  FM230600 VRB02KT P6SM BKN250
N 81 nm 171' KBLI KBLI 221722Z 2218/2318 01008KT P6SM FEW020
  FM222000 31009KT P6SM FEW200
  FM230300 VRB03KT P6SM FEW200
E 85 nm 1248' KEAT KEAT 221739Z 2218/2318 VRB05KT P6SM SKC
  FM222100 14005KT P6SM SCT250
  FM230700 31007KT P6SM BKN250
  FM231400 28005KT P6SM BKN250
SE 89 nm 1098' KYKM TAF KYKM 221720Z 2218/2318 VRB05KT P6SM SCT200
  FM230600 26005KT P6SM BKN200

Shortcut to this page: http://wxbay.com.

Data may contain errors.